Time;durP1;ratioP1;P1;durP2;ratioP2;P2;SDS_P1;SDS_P2;PMS_P1;PMS_P2;Temp;Humidity;BMP_temperature;BMP_pressure;BME280_temperature;BME280_humidity;BME280_pressure;Samples;Min_cycle;Max_cycle;Signal;HPM_P1;HPM_P2
2024/03/01 00:01:10;;;;;;;31.70;18.83;;;;;;;;;;5012487;28;20236;-60
2024/03/01 00:03:37;;;;;;;43.07;22.03;;;5.00;99.90;;;;;;5019857;28;20224;-60
2024/03/01 00:06:04;;;;;;;37.33;19.60;;;4.90;99.90;;;;;;5014832;28;20198;-60
2024/03/01 00:08:31;;;;;;;38.03;20.90;;;;;;;;;;5008294;28;20203;-59
2024/03/01 00:11:00;;;;;;;38.10;20.40;;;;;;;;;;5005153;28;20224;-60
2024/03/01 00:13:27;;;;;;;38.60;21.63;;;;;;;;;;5015184;28;20620;-60
2024/03/01 00:15:55;;;;;;;37.73;20.57;;;;;;;;;;5020873;28;20255;-59
2024/03/01 00:18:21;;;;;;;36.43;18.87;;;4.80;99.90;;;;;;5027275;28;20200;-59
2024/03/01 00:20:50;;;;;;;40.30;21.03;;;4.80;99.90;;;;;;5029529;28;20201;-59
2024/03/01 00:23:17;;;;;;;36.07;20.27;;;4.80;99.90;;;;;;4995552;28;20213;-60
2024/03/01 00:25:45;;;;;;;39.83;19.93;;;;;;;;;;4994693;28;20221;-59
2024/03/01 00:28:14;;;;;;;45.43;23.10;;;;;;;;;;5005371;28;20214;-60
2024/03/01 00:30:41;;;;;;;33.37;19.90;;;;;;;;;;5019247;28;20226;-60
2024/03/01 00:33:08;;;;;;;38.30;22.30;;;;;;;;;;5013991;28;20209;-60
2024/03/01 00:35:35;;;;;;;38.87;23.13;;;;;;;;;;5013937;28;20205;-60
2024/03/01 00:38:03;;;;;;;38.47;21.23;;;4.90;99.90;;;;;;5007029;28;20267;-60
2024/03/01 00:40:30;;;;;;;38.43;22.50;;;;;;;;;;5010286;28;20703;-60
2024/03/01 00:42:57;;;;;;;43.13;22.13;;;;;;;;;;5026093;28;20263;-60
2024/03/01 00:45:26;;;;;;;43.00;23.37;;;;;;;;;;5033608;28;20671;-60
2024/03/01 00:47:53;;;;;;;37.43;20.20;;;5.00;99.90;;;;;;5003148;28;20205;-59
2024/03/01 00:50:22;;;;;;;35.17;18.80;;;;;;;;;;5014395;28;20226;-60
2024/03/01 00:52:49;;;;;;;37.73;20.67;;;;;;;;;;5012761;28;20213;-60
2024/03/01 00:55:16;;;;;;;43.57;21.87;;;;;;;;;;5017526;28;20265;-60
2024/03/01 00:57:43;;;;;;;43.10;23.50;;;4.90;99.90;;;;;;5034143;28;20677;-59
2024/03/01 01:00:11;;;;;;;39.00;22.37;;;5.10;99.90;;;;;;5034136;28;20217;-59
2024/03/01 01:02:43;;;;;;;41.70;22.87;;;5.20;99.90;;;;;;5034201;28;20630;-60
2024/03/01 01:05:12;;;;;;;42.87;22.13;;;5.20;99.90;;;;;;5029753;28;20237;-60
2024/03/01 01:07:39;;;;;;;40.97;22.23;;;5.10;99.90;;;;;;5015436;28;20259;-59
2024/03/01 01:10:07;;;;;;;40.60;22.67;;;5.20;99.90;;;;;;5013851;28;20695;-60
2024/03/01 01:12:34;;;;;;;42.97;22.53;;;5.20;99.90;;;;;;5020496;28;20251;-59
2024/03/01 01:15:02;;;;;;;42.60;23.27;;;5.30;99.90;;;;;;4997377;28;20259;-59
2024/03/01 01:17:29;;;;;;;41.53;24.37;;;;;;;;;;4994767;28;20212;-59
2024/03/01 01:19:59;;;;;;;42.67;22.30;;;5.30;99.90;;;;;;5020845;28;20253;-60
2024/03/01 01:22:26;;;;;;;35.50;21.77;;;;;;;;;;5033140;28;20220;-59
2024/03/01 01:24:53;;;;;;;41.20;23.13;;;;;;;;;;5028899;28;20692;-60
2024/03/01 01:27:21;;;;;;;45.00;22.03;;;;;;;;;;5014081;28;20582;-59
2024/03/01 01:29:48;;;;;;;35.00;20.17;;;;;;;;;;5019946;28;20232;-59
2024/03/01 01:32:15;;;;;;;41.70;22.43;;;;;;;;;;5020778;28;20203;-60
2024/03/01 01:34:43;;;;;;;37.33;22.03;;;;;;;;;;5027810;28;20208;-59
2024/03/01 01:37:11;;;;;;;41.03;21.97;;;;;;;;;;5033396;28;20207;-60
2024/03/01 01:39:39;;;;;;;35.57;19.90;;;;;;;;;;5033299;28;20262;-60
2024/03/01 01:42:06;;;;;;;40.57;22.60;;;;;;;;;;5033475;28;20208;-59
2024/03/01 01:44:33;;;;;;;40.10;20.60;;;;;;;;;;5020275;28;20201;-59
2024/03/01 01:47:01;;;;;;;34.77;20.73;;;;;;;;;;5020809;28;20212;-59
2024/03/01 01:49:28;;;;;;;36.83;20.67;;;;;;;;;;5011188;28;20223;-59
2024/03/01 01:51:57;;;;;;;35.90;20.00;;;5.50;99.90;;;;;;5013291;28;20211;-60
2024/03/01 01:54:26;;;;;;;37.13;20.70;;;5.50;99.90;;;;;;5010403;28;20207;-60
2024/03/01 01:56:54;;;;;;;35.53;20.87;;;5.50;99.90;;;;;;5020539;28;20209;-59
2024/03/01 01:59:21;;;;;;;35.53;19.03;;;5.40;99.90;;;;;;4993673;28;20286;-60
2024/03/01 02:01:48;;;;;;;34.23;19.03;;;5.50;99.90;;;;;;4994926;28;20199;-59
2024/03/01 02:04:15;;;;;;;41.97;21.43;;;5.40;99.90;;;;;;4993575;28;20246;-59
2024/03/01 02:06:44;;;;;;;32.60;19.90;;;;;;;;;;5001759;28;20215;-59
2024/03/01 02:09:13;;;;;;;40.43;19.83;;;5.30;99.90;;;;;;5019526;28;20310;-60
2024/03/01 02:11:41;;;;;;;44.70;21.27;;;5.30;99.90;;;;;;5027344;28;20221;-59
2024/03/01 02:14:09;;;;;;;36.47;20.20;;;5.30;99.90;;;;;;5032732;28;20209;-59
2024/03/01 02:16:36;;;;;;;41.53;20.40;;;5.30;99.90;;;;;;5032216;28;20258;-59
2024/03/01 02:19:04;;;;;;;38.33;20.60;;;5.40;99.90;;;;;;5013372;28;20606;-60
2024/03/01 02:21:34;;;;;;;37.93;20.97;;;;;;;;;;5017309;28;20700;-59
2024/03/01 02:24:04;;;;;;;51.93;24.13;;;;;;;;;;5005516;28;20215;-59
2024/03/01 02:26:32;;;;;;;38.93;20.70;;;;;;;;;;5009675;28;20689;-60
2024/03/01 02:28:59;;;;;;;42.60;21.70;;;5.40;99.90;;;;;;5012654;28;20271;-59
2024/03/01 02:31:26;;;;;;;44.90;23.40;;;5.60;99.90;;;;;;5012578;28;20798;-59
2024/03/01 02:33:53;;;;;;;36.50;20.93;;;;;;;;;;5018131;28;20199;-60
2024/03/01 02:36:20;;;;;;;40.37;22.90;;;;;;;;;;5016827;28;20640;-59
2024/03/01 02:38:48;;;;;;;36.77;20.00;;;;;;;;;;5014280;28;20273;-60
2024/03/01 02:41:16;;;;;;;40.33;20.93;;;;;;;;;;5005296;28;20253;-59
2024/03/01 02:43:43;;;;;;;45.53;22.97;;;;;;;;;;5008142;28;20755;-60
2024/03/01 02:46:11;;;;;;;38.30;21.47;;;;;;;;;;5019076;28;20208;-60
2024/03/01 02:48:38;;;;;;;38.10;19.63;;;;;;;;;;5026235;28;20707;-59
2024/03/01 02:51:06;;;;;;;40.97;20.60;;;;;;;;;;5032082;28;20251;-60
2024/03/01 02:53:33;;;;;;;35.73;19.63;;;;;;;;;;5010084;28;20279;-60
2024/03/01 02:56:00;;;;;;;35.37;19.93;;;;;;;;;;4993152;28;20201;-60
2024/03/01 02:58:29;;;;;;;36.60;20.83;;;;;;;;;;5009729;28;20202;-60
2024/03/01 03:00:56;;;;;;;41.13;21.43;;;;;;;;;;5016141;28;20201;-59
2024/03/01 03:03:23;;;;;;;42.63;21.63;;;;;;;;;;5011262;28;20205;-60
2024/03/01 03:05:50;;;;;;;46.10;21.90;;;;;;;;;;5011237;28;20205;-60
2024/03/01 03:08:17;;;;;;;36.50;20.17;;;;;;;;;;5011219;28;20259;-59
2024/03/01 03:10:45;;;;;;;34.60;20.87;;;;;;;;;;5008210;28;20270;-59
2024/03/01 03:13:12;;;;;;;38.77;21.20;;;;;;;;;;5023633;28;20197;-60
2024/03/01 03:15:41;;;;;;;40.37;20.83;;;;;;;;;;5030830;28;20254;-60
2024/03/01 03:18:08;;;;;;;41.87;22.10;;;;;;;;;;5026597;28;20256;-59
2024/03/01 03:20:35;;;;;;;42.00;22.27;;;;;;;;;;5034679;22;20319;-60
2024/03/01 03:23:03;;;;;;;41.97;22.83;;;;;;;;;;5068392;28;20208;-61
2024/03/01 03:25:30;;;;;;;42.50;23.20;;;;;;;;;;5068816;28;20717;-60
2024/03/01 03:27:58;;;;;;;45.63;23.70;;;;;;;;;;5073848;28;20198;-60
2024/03/01 03:30:25;;;;;;;44.00;22.27;;;;;;;;;;5086954;28;20225;-60
2024/03/01 03:32:53;;;;;;;42.13;21.07;;;;;;;;;;5091553;28;20237;-60
2024/03/01 03:35:21;;;;;;;51.57;23.87;;;;;;;;;;5085269;28;20194;-61
2024/03/01 03:37:48;;;;;;;38.50;20.27;;;;;;;;;;5071490;28;20741;-61
2024/03/01 03:40:15;;;;;;;41.23;21.57;;;;;;;;;;5068065;28;20260;-61
2024/03/01 03:42:42;;;;;;;40.43;22.87;;;;;;;;;;5067708;28;20203;-60
2024/03/01 03:45:10;;;;;;;42.07;22.23;;;;;;;;;;5073671;28;20271;-60
2024/03/01 03:47:41;;;;;;;40.30;21.27;;;;;;;;;;5063277;28;20243;-62
2024/03/01 03:50:10;;;;;;;44.70;22.83;;;;;;;;;;5060845;28;20202;-60
2024/03/01 03:52:37;;;;;;;42.60;24.37;;;;;;;;;;5075397;28;20828;-61
2024/03/01 03:55:06;;;;;;;44.00;24.73;;;;;;;;;;5072830;28;20714;-60
2024/03/01 03:57:33;;;;;;;40.10;22.60;;;;;;;;;;5075185;28;20619;-60
2024/03/01 04:00:01;;;;;;;40.97;23.57;;;;;;;;;;5073106;28;20240;-61
2024/03/01 04:02:29;;;;;;;43.03;23.77;;;;;;;;;;5074173;28;20264;-61
2024/03/01 04:04:56;;;;;;;43.20;24.17;;;;;;;;;;5074505;28;20590;-61
2024/03/01 04:07:24;;;;;;;34.60;20.90;;;;;;;;;;5075581;28;20199;-60
2024/03/01 04:09:51;;;;;;;39.47;22.33;;;;;;;;;;5075378;28;20206;-61
2024/03/01 04:12:19;;;;;;;48.10;24.03;;;;;;;;;;5074857;28;20656;-60
2024/03/01 04:14:46;;;;;;;38.73;24.13;;;;;;;;;;5070694;28;20203;-60
2024/03/01 04:17:13;;;;;;;43.63;22.80;;;;;;;;;;5072793;28;20657;-61
2024/03/01 04:19:40;;;;;;;43.20;22.53;;;;;;;;;;5075010;28;20194;-60
2024/03/01 04:22:08;;;;;;;45.40;24.73;;;;;;;;;;5074918;28;20635;-60
2024/03/01 04:24:37;;;;;;;43.57;25.07;;;;;;;;;;5074085;28;20205;-61
2024/03/01 04:27:04;;;;;;;46.37;25.03;;;5.80;99.90;;;;;;5073120;28;20202;-60
2024/03/01 04:29:32;;;;;;;41.97;24.47;;;;;;;;;;5070268;28;20231;-60
2024/03/01 04:31:59;;;;;;;41.87;23.67;;;;;;;;;;5071310;28;20649;-60
2024/03/01 04:34:26;;;;;;;43.03;24.70;;;;;;;;;;5069930;28;20208;-61
2024/03/01 04:36:57;;;;;;;45.23;24.43;;;;;;;;;;5073608;28;20206;-60
2024/03/01 04:39:25;;;;;;;44.63;24.63;;;;;;;;;;5067817;28;20194;-60
2024/03/01 04:41:53;;;;;;;41.93;22.30;;;;;;;;;;5075357;28;20280;-61
2024/03/01 04:44:20;;;;;;;45.47;23.37;;;;;;;;;;5074493;28;20201;-60
2024/03/01 04:46:48;;;;;;;44.03;22.70;;;;;;;;;;5068525;28;20543;-61
2024/03/01 04:49:15;;;;;;;41.13;23.23;;;;;;;;;;5071869;28;20212;-61
2024/03/01 04:51:42;;;;;;;44.90;23.80;;;;;;;;;;5074504;28;20224;-61
2024/03/01 04:54:09;;;;;;;46.40;23.17;;;;;;;;;;5074354;28;20207;-60
2024/03/01 04:56:37;;;;;;;43.83;23.57;;;;;;;;;;5073111;28;20208;-60
2024/03/01 04:59:08;;;;;;;53.93;23.50;;;;;;;;;;5074423;28;20667;-61
2024/03/01 05:01:39;;;;;;;43.77;23.90;;;;;;;;;;5071126;28;20211;-60
2024/03/01 05:04:08;;;;;;;38.83;22.47;;;;;;;;;;5073808;28;20199;-60
2024/03/01 05:06:36;;;;;;;43.97;24.03;;;;;;;;;;5073426;28;20199;-60
2024/03/01 05:09:07;;;;;;;42.00;23.87;;;;;;;;;;5074587;28;20650;-61
2024/03/01 05:11:35;;;;;;;39.47;22.70;;;;;;;;;;5074021;28;20276;-63
2024/03/01 05:14:03;;;;;;;45.97;24.93;;;;;;;;;;5072303;28;20254;-60
2024/03/01 05:16:32;;;;;;;49.07;23.93;;;5.80;99.90;;;;;;5073041;28;20711;-60
2024/03/01 05:18:59;;;;;;;43.13;23.53;;;6.00;99.90;;;;;;5058218;28;20241;-61
2024/03/01 05:21:26;;;;;;;41.37;23.27;;;6.00;99.90;;;;;;5061811;28;20571;-61
2024/03/01 05:23:53;;;;;;;44.63;23.63;;;6.00;99.90;;;;;;5067219;28;20203;-60
2024/03/01 05:26:20;;;;;;;47.77;25.33;;;;;;;;;;5067717;28;20197;-60
2024/03/01 05:28:47;;;;;;;48.83;25.07;;;;;;;;;;5073157;28;20208;-60
2024/03/01 05:31:14;;;;;;;41.50;23.00;;;5.90;99.90;;;;;;5071231;28;20344;-60
2024/03/01 05:33:43;;;;;;;43.20;24.60;;;;;;;;;;5072638;28;20206;-61
2024/03/01 05:36:11;;;;;;;43.10;25.87;;;5.80;99.90;;;;;;5061873;28;20198;-60
2024/03/01 05:38:41;;;;;;;43.07;23.73;;;;;;;;;;5072203;28;20248;-61
2024/03/01 05:41:08;;;;;;;43.10;24.10;;;;;;;;;;5069065;28;20239;-60
2024/03/01 05:43:36;;;;;;;47.17;24.70;;;;;;;;;;5070163;28;20203;-60
2024/03/01 05:46:14;;;;;;;39.97;24.00;;;;;;;;;;5064975;28;20198;-60
2024/03/01 05:48:43;;;;;;;40.20;22.40;;;;;;;;;;5069429;28;20233;-60
2024/03/01 05:51:11;;;;;;;49.03;24.33;;;;;;;;;;5072894;28;20223;-60
2024/03/01 05:53:41;;;;;;;47.23;25.50;;;;;;;;;;5062703;28;20582;-60
2024/03/01 05:56:17;;;;;;;41.20;24.10;;;;;;;;;;5065069;28;20206;-61
2024/03/01 05:58:46;;;;;;;39.13;22.20;;;;;;;;;;5069854;28;20210;-60
2024/03/01 06:01:15;;;;;;;42.30;21.90;;;;;;;;;;5064979;28;20245;-61
2024/03/01 06:03:44;;;;;;;41.47;23.73;;;;;;;;;;5063033;28;20232;-61
2024/03/01 06:06:15;;;;;;;45.37;23.77;;;;;;;;;;5071838;28;20268;-61
2024/03/01 06:08:42;;;;;;;53.67;26.27;;;;;;;;;;5072658;28;20631;-60
2024/03/01 06:11:09;;;;;;;47.83;25.97;;;;;;;;;;5067239;28;20226;-61
2024/03/01 06:13:38;;;;;;;45.87;26.07;;;;;;;;;;5066479;28;20205;-60
2024/03/01 06:16:05;;;;;;;45.57;24.07;;;;;;;;;;5071619;28;20225;-60
2024/03/01 06:18:33;;;;;;;44.70;25.57;;;;;;;;;;5072749;28;20275;-60
2024/03/01 06:21:02;;;;;;;51.50;29.75;;;;;;;;;;5058198;28;20487;-65
2024/03/01 06:23:29;;;;;;;47.23;26.83;;;6.20;99.90;;;;;;5051932;28;20214;-65
2024/03/01 06:25:56;;;;;;;45.57;26.13;;;6.20;99.90;;;;;;5062631;28;20249;-70
2024/03/01 06:28:24;;;;;;;67.03;30.10;;;;;;;;;;5062198;28;20199;-71
2024/03/01 06:30:51;;;;;;;53.77;28.70;;;;;;;;;;5072155;28;20276;-71
2024/03/01 06:33:19;;;;;;;66.97;31.93;;;6.00;99.90;;;;;;5068351;28;20217;-71
2024/03/01 06:35:46;;;;;;;47.40;26.33;;;6.30;99.90;;;;;;5056677;28;20203;-72
2024/03/01 06:38:14;;;;;;;53.80;27.50;;;6.10;99.90;;;;;;5052316;28;20199;-70
2024/03/01 06:40:41;;;;;;;54.67;29.53;;;6.20;99.90;;;;;;5052338;28;20223;-64
2024/03/01 06:43:08;;;;;;;54.03;27.17;;;6.10;99.90;;;;;;5052432;28;20198;-70
2024/03/01 06:45:35;;;;;;;48.30;25.63;;;6.20;99.90;;;;;;5054489;28;20244;-65
2024/03/01 06:48:02;;;;;;;54.17;28.57;;;6.20;99.90;;;;;;5068890;28;20624;-71
2024/03/01 06:50:29;;;;;;;51.87;29.03;;;6.10;99.90;;;;;;5068385;28;20771;-71
2024/03/01 06:52:56;;;;;;;58.37;27.50;;;6.20;99.90;;;;;;5072125;28;20292;-69
2024/03/01 06:55:24;;;;;;;52.27;27.40;;;6.20;99.90;;;;;;5071127;28;20678;-70
2024/03/01 06:57:51;;;;;;;56.77;28.00;;;6.20;99.90;;;;;;5071986;28;20625;-59
2024/03/01 07:00:18;;;;;;;51.87;27.60;;;6.20;99.90;;;;;;5060921;28;20208;-60
2024/03/01 07:02:46;;;;;;;51.00;26.87;;;6.30;99.90;;;;;;5051869;28;20203;-67
2024/03/01 07:05:13;;;;;;;42.73;25.13;;;;;;;;;;5060489;28;20198;-68
2024/03/01 07:07:42;;;;;;;53.33;28.03;;;6.20;99.90;;;;;;5070966;28;20267;-67
2024/03/01 07:10:09;;;;;;;65.03;27.83;;;6.40;99.90;;;;;;5070884;28;20202;-68
2024/03/01 07:12:42;;;;;;;47.97;26.93;;;6.40;99.90;;;;;;5070836;28;20234;-62
2024/03/01 07:15:09;;;;;;;57.10;27.80;;;6.40;99.90;;;;;;5069729;28;20279;-69
2024/03/01 07:17:40;;;;;;;50.37;27.40;;;6.40;99.90;;;;;;5067685;28;20207;-63
2024/03/01 07:20:08;;;;;;;50.97;27.67;;;6.40;99.90;;;;;;5067585;28;20259;-61
2024/03/01 07:22:35;;;;;;;57.50;29.07;;;6.50;99.90;;;;;;5071592;28;20249;-61
2024/03/01 07:25:03;;;;;;;48.77;28.37;;;6.50;99.90;;;;;;5067527;28;20230;-63
2024/03/01 07:27:30;;;;;;;56.20;28.50;;;6.60;99.90;;;;;;5070867;28;20206;-62
2024/03/01 07:29:58;;;;;;;42.33;24.30;;;6.50;99.90;;;;;;5071382;28;20296;-65
2024/03/01 07:32:25;;;;;;;56.47;28.43;;;6.50;99.90;;;;;;5063226;28;20222;-66
2024/03/01 07:34:52;;;;;;;59.57;30.47;;;;;;;;;;5069375;28;20206;-64
2024/03/01 07:37:20;;;;;;;57.43;28.37;;;;;;;;;;5055145;28;20241;-63
2024/03/01 07:39:47;;;;;;;48.33;26.60;;;;;;;;;;5070129;28;20195;-63
2024/03/01 07:42:14;;;;;;;48.03;25.77;;;6.60;99.90;;;;;;5064302;28;20270;-63
2024/03/01 07:44:41;;;;;;;61.63;28.73;;;6.70;99.90;;;;;;5070052;28;20202;-63
2024/03/01 07:47:10;;;;;;;53.30;29.00;;;;;;;;;;5070891;28;20246;-63
2024/03/01 07:49:37;;;;;;;50.20;28.23;;;;;;;;;;5071344;28;20203;-63
2024/03/01 07:52:04;;;;;;;62.57;28.63;;;;;;;;;;5071341;28;20276;-63
2024/03/01 07:54:31;;;;;;;54.63;29.10;;;;;;;;;;5071701;28;20202;-63
2024/03/01 07:56:59;;;;;;;58.57;28.23;;;;;;;;;;5068043;28;20267;-63
2024/03/01 07:59:26;;;;;;;49.73;27.67;;;;;;;;;;5065513;28;20199;-63
2024/03/01 08:01:53;;;;;;;49.80;30.17;;;;;;;;;;5068969;28;20222;-63
2024/03/01 08:04:22;;;;;;;53.73;27.40;;;;;;;;;;5068364;28;20215;-64
2024/03/01 08:06:49;;;;;;;52.70;31.30;;;;;;;;;;5072206;28;20256;-63
2024/03/01 08:09:17;;;;;;;54.77;27.57;;;;;;;;;;5069739;28;20207;-63
2024/03/01 08:11:45;;;;;;;52.40;28.93;;;;;;;;;;5071471;28;20229;-63
2024/03/01 08:14:22;;;;;;;55.00;30.67;;;;;;;;;;5064559;28;20207;-63
2024/03/01 08:16:53;;;;;;;48.67;29.53;;;;;;;;;;5071219;28;20212;-63
2024/03/01 08:19:22;;;;;;;41.87;25.60;;;;;;;;;;5065237;28;20322;-63
2024/03/01 08:21:49;;;;;;;52.70;27.77;;;;;;;;;;5071648;28;20298;-63
2024/03/01 08:24:22;;;;;;;50.97;27.27;;;;;;;;;;5072983;28;20207;-64
2024/03/01 08:26:50;;;;;;;49.87;29.80;;;;;;;;;;5070727;28;20630;-64
2024/03/01 08:29:17;;;;;;;44.80;27.73;;;;;;;;;;5070654;28;20199;-63
2024/03/01 08:31:44;;;;;;;48.03;26.17;;;;;;;;;;5068556;28;20235;-63
2024/03/01 08:34:18;;;;;;;51.93;26.83;;;;;;;;;;5072087;28;20263;-63
2024/03/01 08:36:46;;;;;;;53.93;28.40;;;;;;;;;;5072872;28;20256;-64
2024/03/01 08:39:16;;;;;;;50.80;28.57;;;;;;;;;;5070421;28;20196;-63
2024/03/01 08:41:45;;;;;;;51.40;28.43;;;;;;;;;;5069046;28;20662;-63
2024/03/01 08:44:33;;;;;;;52.00;31.07;;;;;;;;;;5073461;28;20214;-63
2024/03/01 08:47:00;;;;;;;52.07;29.40;;;;;;;;;;5066720;28;20253;-63
2024/03/01 08:49:46;;;;;;;52.93;29.00;;;;;;;;;;5058552;28;20202;-63
2024/03/01 08:52:23;;;;;;;48.63;27.90;;;;;;;;;;5073394;28;20332;-64
2024/03/01 08:54:51;;;;;;;53.00;27.87;;;;;;;;;;5069225;28;20203;-64
2024/03/01 08:57:23;;;;;;;49.90;27.53;;;;;;;;;;5073061;28;20197;-63
2024/03/01 08:59:51;;;;;;;45.80;26.67;;;;;;;;;;5073332;28;20571;-63
2024/03/01 09:02:36;;;;;;;53.57;30.30;;;;;;;;;;5069921;28;20215;-63
2024/03/01 09:05:05;;;;;;;46.80;28.27;;;;;;;;;;5061051;28;20201;-63
2024/03/01 09:07:37;;;;;;;54.47;27.43;;;;;;;;;;5073682;28;20203;-63
2024/03/01 09:10:05;;;;;;;47.93;27.77;;;;;;;;;;5071487;28;20208;-63
2024/03/01 09:12:32;;;;;;;54.50;28.37;;;;;;;;;;5073890;28;20221;-63
2024/03/01 09:15:01;;;;;;;47.40;27.17;;;;;;;;;;5072318;28;20255;-63
2024/03/01 09:17:28;;;;;;;46.07;27.07;;;;;;;;;;5069882;28;20621;-63
2024/03/01 09:19:55;;;;;;;47.30;26.13;;;;;;;;;;5076479;28;20233;-63
2024/03/01 09:22:24;;;;;;;51.53;26.07;;;;;;;;;;5073291;28;20226;-63
2024/03/01 09:24:53;;;;;;;47.43;26.83;;;;;;;;;;5072134;28;20211;-63
2024/03/01 09:27:27;;;;;;;46.87;24.97;;;;;;;;;;5073122;28;20199;-63
2024/03/01 09:29:55;;;;;;;43.43;24.80;;;;;;;;;;5070182;28;20207;-63
2024/03/01 09:32:23;;;;;;;54.47;26.03;;;;;;;;;;5072642;28;20225;-63
2024/03/01 09:34:50;;;;;;;41.70;24.13;;;;;;;;;;5069853;28;20199;-63
2024/03/01 09:37:20;;;;;;;50.73;25.80;;;;;;;;;;5065917;28;20675;-62
2024/03/01 09:39:48;;;;;;;39.53;23.27;;;;;;;;;;5071315;28;20685;-63
2024/03/01 09:42:36;;;;;;;43.17;24.50;;;;;;;;;;5071430;28;20249;-63
2024/03/01 09:45:24;;;;;;;42.07;22.60;;;;;;;;;;5071994;28;20343;-63
2024/03/01 09:48:00;;;;;;;38.80;21.70;;;;;;;;;;5063995;28;20213;-63
2024/03/01 09:50:33;;;;;;;40.57;24.07;;;;;;;;;;5073375;28;20227;-63
2024/03/01 09:53:07;;;;;;;45.40;24.73;;;;;;;;;;5072870;28;20358;-63
2024/03/01 09:55:37;;;;;;;43.63;24.50;;;;;;;;;;5070774;28;20195;-63
2024/03/01 09:58:14;;;;;;;44.00;22.97;;;;;;;;;;5069366;28;20202;-63
2024/03/01 10:00:48;;;;;;;35.20;20.93;;;;;;;;;;5073150;28;20222;-63
2024/03/01 10:03:18;;;;;;;35.13;20.83;;;;;;;;;;5068678;28;20198;-63
2024/03/01 10:06:00;;;;;;;38.37;19.47;;;;;;;;;;5066349;28;20264;-63
2024/03/01 10:08:30;;;;;;;39.83;21.13;;;;;;;;;;5068897;28;20226;-63
2024/03/01 10:11:08;;;;;;;32.27;18.30;;;;;;;;;;5056995;28;20286;-63
2024/03/01 10:13:42;;;;;;;33.47;18.37;;;;;;;;;;5052620;28;20308;-63
2024/03/01 10:16:14;;;;;;;29.53;17.07;;;;;;;;;;5071781;28;20202;-63
2024/03/01 10:18:49;;;;;;;32.17;18.23;;;;;;;;;;5072830;28;20674;-63
2024/03/01 10:21:21;;;;;;;36.90;19.10;;;;;;;;;;5069723;28;20222;-63
2024/03/01 10:23:51;;;;;;;38.13;18.73;;;;;;;;;;5072445;28;20198;-63
2024/03/01 10:26:20;;;;;;;28.43;16.20;;;;;;;;;;5071124;28;20634;-63
2024/03/01 10:28:55;;;;;;;28.90;17.90;;;;;;;;;;5072393;28;20204;-63
2024/03/01 10:31:31;;;;;;;31.77;16.13;;;;;;;;;;5072003;28;20273;-63
2024/03/01 10:34:04;;;;;;;27.13;15.23;;;;;;;;;;5072260;28;20655;-64
2024/03/01 10:36:37;;;;;;;19.67;12.63;;;;;;;;;;5071830;28;20300;-63
2024/03/01 10:39:06;;;;;;;19.57;12.90;;;;;;;;;;5072281;28;20290;-63
2024/03/01 10:41:38;;;;;;;20.20;12.23;;;;;;;;;;5064324;28;20258;-63
2024/03/01 10:44:12;;;;;;;19.53;11.03;;;;;;;;;;5069598;28;20285;-63
2024/03/01 10:46:41;;;;;;;17.03;9.87;;;;;;;;;;5072258;28;20226;-63
2024/03/01 10:49:13;;;;;;;10.33;7.07;;;;;;;;;;5071962;28;20202;-63
2024/03/01 10:51:41;;;;;;;5.53;4.30;;;;;;;;;;5072170;28;20223;-63
2024/03/01 10:54:09;;;;;;;6.03;3.83;;;;;;;;;;5053824;28;20256;-63
2024/03/01 10:56:36;;;;;;;7.03;4.77;;;;;;;;;;5051146;28;20202;-63
2024/03/01 10:59:05;;;;;;;9.30;5.00;;;;;;;;;;5055914;28;20639;-63
2024/03/01 11:01:40;;;;;;;4.60;2.57;;;;;;;;;;5071730;28;20226;-63
2024/03/01 11:04:12;;;;;;;2.23;2.10;;;;;;;;;;5067687;28;20248;-63
2024/03/01 11:06:42;;;;;;;3.17;2.57;;;;;;;;;;5071462;28;20202;-63
2024/03/01 11:09:11;;;;;;;3.17;2.57;;;;;;;;;;5071654;28;20199;-63
2024/03/01 11:11:42;;;;;;;2.00;1.90;;;;;;;;;;5071938;28;20246;-63
2024/03/01 11:14:12;;;;;;;1.30;1.20;;;;;;;;;;5071972;28;20227;-63
2024/03/01 11:16:43;;;;;;;1.33;1.23;;;;;;;;;;5066784;28;20217;-63
2024/03/01 11:19:13;;;;;;;1.73;1.17;;;;;;;;;;5071639;28;20242;-63
2024/03/01 11:21:45;;;;;;;0.67;0.60;;;;;;;;;;5069979;28;20606;-63
2024/03/01 11:24:16;;;;;;;1.10;1.07;;;;;;;;;;5068882;28;20202;-63
2024/03/01 11:26:44;;;;;;;1.13;0.30;;;;;;;;;;5071744;28;20239;-63
2024/03/01 11:29:16;;;;;;;0.40;0.40;;;;;;;;;;5071654;28;20207;-63
2024/03/01 11:31:45;;;;;;;0.40;0.40;;;;;;;;;;5069934;28;20270;-63
2024/03/01 11:34:16;;;;;;;0.50;0.50;;;;;;;;;;5068969;28;20255;-63
2024/03/01 11:36:48;;;;;;;0.30;0.30;;;;;;;;;;5072418;28;20213;-63
2024/03/01 11:39:29;;;;;;;0.17;0.17;;;;;;;;;;5069871;28;20679;-63
2024/03/01 11:42:03;;;;;;;0.40;0.20;;;;;;;;;;5067543;28;20255;-63
2024/03/01 11:44:34;;;;;;;0.30;0.30;;;;;;;;;;5063337;28;20603;-63
2024/03/01 11:47:07;;;;;;;1.40;0.20;;;;;;;;;;5055725;28;20214;-63
2024/03/01 11:49:41;;;;;;;0.23;0.20;;;;;;;;;;5064994;28;20687;-63
2024/03/01 11:52:16;;;;;;;1.13;0.60;;;;;;;;;;5071813;28;20229;-63
2024/03/01 11:54:48;;;;;;;0.30;0.30;;;;;;;;;;5071817;28;20226;-63
2024/03/01 11:57:21;;;;;;;0.10;0.10;;;;;;;;;;5071432;28;20231;-63
2024/03/01 12:00:09;;;;;;;0.20;0.10;;;;;;;;;;5068748;28;20230;-63
2024/03/01 12:02:43;;;;;;;0.00;0.00;;;;;;;;;;5064074;28;20189;-63
2024/03/01 12:05:19;;;;;;;5.93;0.50;;;;;;;;;;5060010;28;20228;-63
2024/03/01 12:07:54;;;;;;;0.10;0.10;;;;;;;;;;5069452;28;20207;-63
2024/03/01 12:10:26;;;;;;;0.10;0.10;;;;;;;;;;5075139;28;20228;-63
2024/03/01 12:12:54;;;;;;;0.30;0.10;;;;;;;;;;5073059;28;20703;-64
2024/03/01 12:15:23;;;;;;;0.40;0.20;;;;;;;;;;5069424;28;20246;-63
2024/03/01 12:17:56;;;;;;;0.67;0.30;;;;;;;;;;5072734;28;20203;-63
2024/03/01 12:20:24;;;;;;;0.30;0.30;;;;;;;;;;5074832;28;20824;-63
2024/03/01 12:22:56;;;;;;;0.33;0.30;;;;;;;;;;5069549;28;20237;-63
2024/03/01 12:25:25;;;;;;;0.50;0.50;;;;;;;;;;5054862;28;20743;-63
2024/03/01 12:28:08;;;;;;;1.00;0.50;;;;;;;;;;5054808;28;20232;-63
2024/03/01 12:30:38;;;;;;;0.43;0.40;;;;;;;;;;5067106;28;20234;-63
2024/03/01 12:33:25;;;;;;;0.40;0.40;;;;;;;;;;5069434;28;20225;-63
2024/03/01 12:35:56;;;;;;;0.43;0.43;;;;;;;;;;5074505;28;20775;-63
2024/03/01 12:38:26;;;;;;;0.50;0.50;;;;;;;;;;5073934;28;20211;-63
2024/03/01 12:41:17;;;;;;;0.80;0.80;;;;;;;;;;5073449;28;20674;-63
2024/03/01 12:43:59;;;;;;;0.83;0.70;;;;;;;;;;5064758;28;20244;-63
2024/03/01 12:46:34;;;;;;;0.70;0.70;;;;;;;;;;5072484;28;20261;-63
2024/03/01 12:49:07;;;;;;;0.40;0.40;;;;;;;;;;5071738;28;20241;-63
2024/03/01 12:51:40;;;;;;;0.87;0.67;;;;;;;;;;5074704;28;20219;-63
2024/03/01 12:54:07;;;;;;;1.00;1.00;;;;;;;;;;5066105;28;20250;-62
2024/03/01 12:56:37;;;;;;;3.80;1.83;;;;;;;;;;5072820;28;20203;-62
2024/03/01 12:59:23;;;;;;;1.20;0.80;;;;;;;;;;5074542;28;20211;-62
2024/03/01 13:01:57;;;;;;;1.00;1.00;;;;;;;;;;5068551;28;20221;-62
2024/03/01 13:04:34;;;;;;;2.97;1.00;;;;;;;;;;5060690;28;20203;-62
2024/03/01 13:07:02;;;;;;;1.23;0.80;;;;;;;;;;5071103;28;20234;-62
2024/03/01 13:09:31;;;;;;;1.07;0.93;;;;;;;;;;5074036;28;20249;-61
2024/03/01 13:12:01;;;;;;;1.33;1.13;;;;;;;;;;5072281;28;20855;-62
2024/03/01 13:14:35;;;;;;;1.17;1.17;;;;;;;;;;5073211;28;20245;-62
2024/03/01 13:17:09;;;;;;;1.10;1.10;;;;;;;;;;5074386;28;20207;-62
2024/03/01 13:19:43;;;;;;;2.73;1.43;;;;;;;;;;5073962;28;20206;-62
2024/03/01 13:22:12;;;;;;;1.83;1.73;;;;;;;;;;5070968;28;20251;-62
2024/03/01 13:24:45;;;;;;;2.50;2.07;;;;;;;;;;5072456;28;20560;-62
2024/03/01 13:27:29;;;;;;;1.67;1.60;;;;;;;;;;5073845;28;20294;-62
2024/03/01 13:29:58;;;;;;;2.20;1.73;;;;;;;;;;5068974;28;20203;-62
2024/03/01 13:32:28;;;;;;;2.40;1.67;;;;;;;;;;5073344;28;20250;-62
2024/03/01 13:34:59;;;;;;;2.03;1.90;;;;;;;;;;5072314;28;20215;-62
2024/03/01 13:37:29;;;;;;;2.13;2.03;;;;;;;;;;5073867;28;20234;-62
2024/03/01 13:39:59;;;;;;;1.97;1.70;;;;;;;;;;5072841;28;20261;-62
2024/03/01 13:42:32;;;;;;;2.33;1.90;;;;;;;;;;5069341;28;20283;-62
2024/03/01 13:45:03;;;;;;;2.23;1.97;;;;;;;;;;5071646;28;20227;-63
2024/03/01 13:47:31;;;;;;;2.00;1.90;;;;;;;;;;5072228;28;20227;-62
2024/03/01 13:50:09;;;;;;;2.53;2.10;;;10.30;99.90;;;;;;5073511;28;20257;-62
2024/03/01 13:52:40;;;;;;;1.60;1.50;;;;;;;;;;5072257;28;20198;-63
2024/03/01 13:55:10;;;;;;;2.40;2.20;;;;;;;;;;5071851;28;20281;-63
2024/03/01 13:57:42;;;;;;;1.87;1.50;;;;;;;;;;5074734;28;20207;-63
2024/03/01 14:00:14;;;;;;;1.90;1.80;;;;;;;;;;5071317;28;20199;-62
2024/03/01 14:02:42;;;;;;;1.70;1.60;;;;;;;;;;5070827;28;20706;-62
2024/03/01 14:05:13;;;;;;;2.30;2.10;;;;;;;;;;5071522;28;20210;-63
2024/03/01 14:07:46;;;;;;;2.40;2.10;;;;;;;;;;5066632;28;20673;-62
2024/03/01 14:10:13;;;;;;;2.27;2.07;;;10.40;99.90;;;;;;5072870;28;20203;-62
2024/03/01 14:12:44;;;;;;;2.43;1.97;;;;;;;;;;5072141;28;20360;-62
2024/03/01 14:15:12;;;;;;;1.97;1.87;;;10.20;99.90;;;;;;5072081;28;20306;-62